Time;durP1;ratioP1;P1;durP2;ratioP2;P2;SDS_P1;SDS_P2;PMS_P1;PMS_P2;Temp;Humidity;BMP_temperature;BMP_pressure;BME280_temperature;BME280_humidity;BME280_pressure;Samples;Min_cycle;Max_cycle;Signal;HPM_P1;HPM_P2
2023/10/10 00:01:03;;;;;;;2.00;1.20;;;;;;;11.33;100.00;100122.72;7387799;19;20031;-85
2023/10/10 00:03:31;;;;;;;0.20;0.20;;;;;;;11.27;100.00;100116.28;7388398;19;20028;-85
2023/10/10 00:05:59;;;;;;;0.40;0.30;;;;;;;11.22;100.00;100122.50;7388920;19;20046;-85
2023/10/10 00:08:33;;;;;;;0.82;0.60;;;;;;;11.18;100.00;100124.69;7390144;19;20567;-85
2023/10/10 00:11:08;;;;;;;1.60;1.13;;;;;;;11.18;100.00;100119.88;7395117;19;20058;-85
2023/10/10 00:13:42;;;;;;;0.30;0.30;;;;;;;11.14;100.00;100124.09;7392190;19;20011;-85
2023/10/10 00:16:23;;;;;;;0.45;0.32;;;;;;;11.07;100.00;100118.84;7389960;19;20097;-85
2023/10/10 00:18:49;;;;;;;;;;;;;;;11.20;100.00;100122.19;7389971;19;20015;-85
2023/10/10 00:21:28;;;;;;;1.17;0.35;;;;;;;11.01;100.00;100112.38;7394321;19;19919;-85
2023/10/10 00:23:55;;;;;;;4.30;0.40;;;;;;;10.94;100.00;100118.31;7400737;19;20014;-85
2023/10/10 00:26:22;;;;;;;1.05;0.55;;;;;;;10.92;100.00;100118.00;7393879;19;20010;-85
2023/10/10 00:28:56;;;;;;;1.17;0.30;;;;;;;10.86;100.00;100119.91;7394271;19;20099;-86
2023/10/10 00:31:28;;;;;;;0.75;0.20;;;;;;;10.81;100.00;100107.38;7396385;19;20014;-85
2023/10/10 00:33:55;;;;;;;0.38;0.20;;;;;;;10.82;100.00;100099.78;7397210;19;20025;-85
2023/10/10 00:36:33;;;;;;;0.60;0.50;;;;;;;10.81;100.00;100101.03;7397937;19;20023;-84
2023/10/10 00:41:51;;;;;;;8.43;1.65;;;;;;;10.78;100.00;100090.84;7395012;19;20018;-86
2023/10/10 00:44:19;;;;;;;0.40;0.38;;;;;;;10.77;100.00;100094.84;7395631;19;20014;-85
2023/10/10 00:46:51;;;;;;;2.47;0.60;;;;;;;10.78;100.00;100093.63;7394959;19;20082;-86
2023/10/10 00:49:23;;;;;;;1.02;0.40;;;;;;;10.79;100.00;100098.72;7395506;19;20429;-85
2023/10/10 00:51:51;;;;;;;0.10;0.10;;;;;;;10.77;100.00;100089.28;7401510;19;20022;-86
2023/10/10 00:56:54;;;;;;;0.70;0.50;;;;;;;10.74;100.00;100091.03;7398796;19;20422;-85
2023/10/10 00:59:27;;;;;;;0.28;0.25;;;;;;;10.75;100.00;100086.97;7396825;19;20015;-85
2023/10/10 01:01:54;;;;;;;1.00;0.82;;;;;;;10.77;100.00;100092.84;7395085;19;20073;-86
2023/10/10 01:04:37;;;;;;;1.83;1.38;;;;;;;10.92;100.00;100090.91;7393671;19;20015;-86
2023/10/10 01:07:08;;;;;;;1.38;0.22;;;;;;;10.77;100.00;100086.50;7400697;19;20007;-85
2023/10/10 01:09:41;;;;;;;0.55;0.52;;;;;;;10.76;100.00;100082.19;7397705;19;20472;-86
2023/10/10 01:12:09;;;;;;;1.10;0.95;;;;;;;10.76;100.00;100084.97;7396550;19;20022;-86
2023/10/10 01:14:38;;;;;;;0.68;0.45;;;;;;;10.77;100.00;100089.28;7397891;19;20018;-85
2023/10/10 01:17:05;;;;;;;1.27;0.43;;;;;;;10.75;100.00;100080.63;7396032;19;20348;-86
2023/10/10 01:19:34;;;;;;;0.43;0.30;;;;;;;10.80;100.00;100082.78;7394488;19;20028;-86
2023/10/10 01:22:03;;;;;;;1.17;0.82;;;;;;;10.80;100.00;100088.34;7393073;19;20017;-86
2023/10/10 01:24:32;;;;;;;0.63;0.57;;;;;;;10.74;100.00;100079.09;7395885;19;20333;-86
2023/10/10 01:27:03;;;;;;;5.22;0.90;;;;;;;10.71;100.00;100074.47;7393357;19;20082;-85
2023/10/10 01:29:40;;;;;;;0.50;0.50;;;;;;;10.65;100.00;100077.13;7395384;19;20073;-86
2023/10/10 01:32:10;;;;;;;0.15;0.13;;;;;;;10.58;100.00;100071.88;7394171;19;20010;-86
2023/10/10 01:34:43;;;;;;;0.60;0.60;;;;;;;10.54;100.00;100076.84;7397552;19;20025;-86
2023/10/10 01:37:22;;;;;;;1.75;1.02;;;;;;;10.54;100.00;100079.66;7395268;19;20010;-86
2023/10/10 01:40:15;;;;;;;0.77;0.77;;;;;;;10.55;100.00;100070.03;7393537;19;20021;-86
2023/10/10 01:42:53;;;;;;;0.45;0.43;;;;;;;10.50;100.00;100065.88;7394958;19;20042;-86
2023/10/10 01:45:20;;;;;;;0.20;0.20;;;;;;;10.46;100.00;100065.28;7395526;19;20022;-86
2023/10/10 01:47:57;;;;;;;1.05;0.30;;;;;;;10.43;100.00;100057.88;7394789;19;20006;-86
2023/10/10 01:50:26;;;;;;;0.80;0.80;;;;;;;10.43;100.00;100055.09;7393822;19;20010;-86
2023/10/10 01:52:56;;;;;;;0.55;0.55;;;;;;;10.42;100.00;100053.53;7400935;19;20030;-86
2023/10/10 01:55:26;;;;;;;0.65;0.65;;;;;;;10.42;100.00;100053.53;7396906;19;20487;-86
2023/10/10 01:58:00;;;;;;;0.93;0.85;;;;;;;10.39;100.00;100053.72;7396638;19;20029;-86
2023/10/10 02:00:34;;;;;;;0.40;0.38;;;;;;;10.37;100.00;100056.19;7396247;19;20535;-86
2023/10/10 02:03:01;;;;;;;0.47;0.47;;;;;;;10.33;100.00;100053.56;7395488;19;20014;-85
2023/10/10 02:08:09;;;;;;;1.65;1.10;;;;;;;10.32;100.00;100038.13;7394565;19;20496;-86
2023/10/10 02:10:36;;;;;;;1.23;0.80;;;;;;;10.32;100.00;100043.69;7394985;19;20018;-86
2023/10/10 02:13:06;;;;;;;0.90;0.73;;;;;;;10.29;100.00;100044.59;7396200;19;20018;-85
2023/10/10 02:15:35;;;;;;;3.20;0.57;;;;;;;10.30;100.00;100035.03;7395769;19;20011;-86
2023/10/10 02:18:05;;;;;;;0.95;0.52;;;;;;;10.26;100.00;100023.28;7394674;19;20476;-86
2023/10/10 02:23:44;;;;;;;1.02;0.60;;;;;;;10.20;100.00;100016.06;7395213;19;20026;-86
2023/10/10 02:25:48;;;;;;;3.60;0.88;;;;;;;10.15;100.00;100013.88;7395750;19;20014;-86
2023/10/10 02:30:46;;;;;;;0.68;0.65;;;;;;;10.05;100.00;100018.66;7397893;19;20019;-86
2023/10/10 02:35:55;;;;;;;1.42;0.28;;;;;;;10.00;100.00;100024.09;7397633;19;20033;-84
2023/10/10 02:38:22;;;;;;;0.55;0.55;;;;;;;9.99;100.00;100026.13;7392762;19;20034;-84
2023/10/10 02:40:55;;;;;;;0.82;0.63;;;;;;;9.99;100.00;100017.75;7392715;19;20094;-85
2023/10/10 02:43:45;;;;;;;1.77;1.10;;;;;;;9.99;100.00;100022.56;7390183;19;20019;-85
2023/10/10 02:46:18;;;;;;;1.42;0.55;;;;;;;10.01;100.00;100023.63;7392021;19;20022;-85
2023/10/10 02:48:44;;;;;;;0.73;0.35;;;;;;;9.98;100.00;100024.59;7394505;19;20011;-85
2023/10/10 02:51:15;;;;;;;1.05;0.20;;;;;;;9.94;100.00;100037.84;7393873;19;20547;-84
2023/10/10 02:53:46;;;;;;;1.35;0.57;;;;;;;9.90;100.00;100032.47;7393952;19;20456;-85
2023/10/10 02:56:16;;;;;;;;;;;;;;;9.89;100.00;100042.06;7392422;19;20018;-84
2023/10/10 02:58:43;;;;;;;0.43;0.43;;;;;;;11.22;100.00;100041.66;7391721;19;19922;-85
2023/10/10 03:01:19;;;;;;;2.63;0.55;;;;;;;13.69;100.00;100037.00;7391179;19;20376;-85
2023/10/10 03:03:46;;;;;;;1.25;0.80;;;;;;;14.39;100.00;100029.06;7390553;19;20021;-85
2023/10/10 03:06:12;;;;;;;0.63;0.40;;;;;;;14.64;100.00;100033.06;7392657;19;20019;-84
2023/10/10 03:08:51;;;;;;;3.80;0.95;;;;;;;14.76;100.00;100029.84;7390466;19;20014;-84
2023/10/10 03:11:35;;;;;;;3.72;0.55;;;;;;;14.80;100.00;100023.97;7391933;19;20010;-84
2023/10/10 03:14:07;;;;;;;3.30;0.20;;;;;;;14.85;100.00;100026.84;7392050;19;20011;-84
2023/10/10 03:16:59;;;;;;;1.17;0.47;;;;;;;14.91;100.00;100029.66;7391684;19;20015;-85
2023/10/10 03:19:28;;;;;;;0.28;0.28;;;;;;;14.98;100.00;100034.81;7390322;19;20468;-85
2023/10/10 03:22:22;;;;;;;0.17;0.17;;;;;;;15.00;100.00;100033.03;7389788;19;20014;-85
2023/10/10 03:25:38;;;;;;;3.80;0.77;;;;;;;14.95;100.00;100018.97;7393669;19;20010;-85
2023/10/10 03:27:54;;;;;;;0.82;0.63;;;;;;;14.92;100.00;100026.34;7388496;19;20011;-85
2023/10/10 03:31:08;;;;;;;1.95;0.60;;;;;;;14.88;100.00;100020.22;7391770;19;20006;-85
2023/10/10 03:33:09;;;;;;;0.75;0.68;;;;;;;14.89;100.00;100016.16;7390531;19;20018;-85
2023/10/10 03:35:59;;;;;;;0.20;0.17;;;;;;;14.91;100.00;100012.84;7393400;19;20042;-86
2023/10/10 03:39:17;;;;;;;0.68;0.38;;;;;;;15.30;100.00;100018.63;7391016;19;20015;-86
2023/10/10 05:23:29;;;;;;;0.38;0.38;;;;;;;15.33;100.00;100020.44;7388096;19;20030;-85
2023/10/10 05:23:34;;;;;;;0.40;0.40;;;;;;;14.94;100.00;99889.19;7396757;19;20014;-85
2023/10/10 05:26:02;;;;;;;3.25;0.88;;;;;;;25.09;100.00;99879.19;7397985;19;20018;-86
2023/10/10 05:28:32;;;;;;;1.00;0.35;;;;;;;34.72;46.73;99848.00;7395384;19;20014;-86
2023/10/10 05:31:02;;;;;;;1.92;0.65;;;;;;;37.64;37.90;99840.97;7401225;19;20022;-85
2023/10/10 05:33:30;;;;;;;0.85;0.47;;;;;;;20.18;100.00;99861.94;7395610;19;20033;-85
2023/10/10 05:36:06;;;;;;;0.50;0.30;;;;;;;17.11;100.00;99853.25;7397691;19;20018;-85
2023/10/10 05:38:39;;;;;;;2.65;0.35;;;;;;;16.31;100.00;99861.72;7395097;19;20050;-85
2023/10/10 05:41:06;;;;;;;0.40;0.40;;;;;;;15.94;100.00;99856.44;7395140;19;20033;-85
2023/10/10 05:43:33;;;;;;;0.82;0.80;;;;;;;15.80;100.00;99856.72;7394042;19;20539;-85
2023/10/10 05:46:01;;;;;;;0.52;0.20;;;;;;;15.66;100.00;99847.25;7395735;19;20047;-85
2023/10/10 05:48:27;;;;;;;0.28;0.28;;;;;;;15.60;100.00;99851.34;7393108;19;20051;-85
2023/10/10 05:50:53;;;;;;;4.10;0.73;;;;;;;15.59;100.00;99841.41;7395287;19;20040;-84
2023/10/10 05:53:20;;;;;;;1.75;0.90;;;;;;;15.60;100.00;99842.94;7395682;19;20115;-85
2023/10/10 05:55:53;;;;;;;7.95;0.75;;;;;;;15.58;100.00;99840.63;7395693;19;20028;-85
2023/10/10 05:58:20;;;;;;;1.75;0.52;;;;;;;15.62;100.00;99834.75;7393626;19;20038;-84
2023/10/10 06:00:48;;;;;;;0.75;0.40;;;;;;;12.35;100.00;99840.16;7395357;19;20014;-85
2023/10/10 06:03:18;;;;;;;0.50;0.50;;;;;;;14.85;100.00;99836.16;7393023;19;20465;-84
2023/10/10 06:05:45;;;;;;;0.40;0.40;;;;;;;15.17;100.00;99829.09;7394452;19;20026;-86
2023/10/10 06:08:14;;;;;;;2.05;0.50;;;;;;;15.35;100.00;99835.50;7394110;19;20010;-86
2023/10/10 06:10:40;;;;;;;1.02;0.68;;;;;;;15.39;100.00;99838.81;7394707;19;20078;-85
2023/10/10 06:13:07;;;;;;;3.35;0.60;;;;;;;15.47;100.00;99845.47;7394143;19;20011;-85
2023/10/10 06:15:34;;;;;;;0.20;0.20;;;;;;;15.23;100.00;99840.31;7393975;19;20375;-84
2023/10/10 06:18:14;;;;;;;2.78;1.38;;;;;;;15.45;100.00;99836.78;7394830;19;20338;-85
2023/10/10 06:20:44;;;;;;;1.55;1.38;;;;;;;12.54;100.00;99838.66;7394138;19;20350;-85
2023/10/10 06:23:15;;;;;;;5.60;0.83;;;;;;;15.31;100.00;99837.78;7394372;19;20010;-85
2023/10/10 06:25:41;;;;;;;;;;;;;;;15.59;100.00;99844.22;7395307;19;20018;-86
2023/10/10 06:28:25;;;;;;;0.52;0.52;;;;;;;15.70;100.00;99850.56;7394860;19;19919;-88
2023/10/10 06:30:53;;;;;;;3.67;0.63;;;;;;;15.77;100.00;99854.91;7399491;19;20010;-86
2023/10/10 06:33:27;;;;;;;0.65;0.20;;;;;;;15.75;100.00;99863.88;7394460;19;20034;-86
2023/10/10 06:39:17;;;;;;;2.22;1.23;;;;;;;15.72;100.00;99861.31;7392636;19;20019;-86
2023/10/10 06:41:50;;;;;;;1.02;0.85;;;;;;;15.71;100.00;99851.34;7394897;19;20074;-86
2023/10/10 06:44:31;;;;;;;0.50;0.35;;;;;;;15.74;100.00;99855.97;7390614;19;20014;-86
2023/10/10 06:46:59;;;;;;;0.25;0.25;;;;;;;15.74;100.00;99867.94;7392075;19;20360;-86
2023/10/10 06:49:43;;;;;;;2.75;0.50;;;;;;;15.78;100.00;99864.88;7392127;19;20014;-86
2023/10/10 06:52:17;;;;;;;3.45;0.80;;;;;;;15.81;100.00;99870.22;7396931;19;20042;-86
2023/10/10 06:54:53;;;;;;;0.60;0.30;;;;;;;15.84;100.00;99865.66;7395640;19;20010;-86
2023/10/10 06:57:21;;;;;;;0.10;0.10;;;;;;;15.90;100.00;99872.00;7392973;19;20034;-86
2023/10/10 06:59:48;;;;;;;3.95;0.47;;;;;;;16.00;100.00;99870.50;7396198;19;20041;-86
2023/10/10 07:02:25;;;;;;;0.30;0.25;;;;;;;16.04;100.00;99864.59;7393105;19;20026;-87
2023/10/10 07:04:54;;;;;;;0.85;0.30;;;;;;;16.05;100.00;99866.91;7393243;19;20019;-86
2023/10/10 07:07:21;;;;;;;0.20;0.15;;;;;;;16.11;100.00;99866.91;7390826;19;20346;-86
2023/10/10 07:09:57;;;;;;;3.55;0.60;;;;;;;16.16;100.00;99861.25;7389669;19;20085;-86
2023/10/10 07:12:28;;;;;;;2.78;0.98;;;;;;;16.15;100.00;99864.59;7394196;19;20037;-86
2023/10/10 07:14:54;;;;;;;;;;;;;;;16.17;100.00;99862.03;7394829;19;20450;-86
2023/10/10 07:17:27;;;;;;;1.88;0.47;;;;;;;16.16;100.00;99857.69;7395661;19;19942;-85
2023/10/10 07:22:36;;;;;;;1.70;0.80;;;;;;;16.18;100.00;99855.13;7390795;19;20002;-87
2023/10/10 07:25:17;;;;;;;0.77;0.57;;;;;;;16.19;100.00;99843.38;7391781;19;20015;-86
2023/10/10 07:27:43;;;;;;;0.55;0.50;;;;;;;16.22;100.00;99847.97;7392061;19;20023;-86
2023/10/10 07:32:48;;;;;;;0.75;0.55;;;;;;;16.34;100.00;99852.28;7394003;19;20018;-86
2023/10/10 07:35:16;;;;;;;0.10;0.10;;;;;;;16.39;100.00;99851.50;7392001;19;20022;-86
2023/10/10 07:37:43;;;;;;;0.47;0.47;;;;;;;16.48;100.00;99865.25;7392510;19;20014;-86
2023/10/10 07:42:49;;;;;;;2.17;0.10;;;;;;;16.73;100.00;99851.41;7390963;19;20019;-86
2023/10/10 07:45:34;;;;;;;3.13;0.93;;;;;;;16.56;100.00;99843.03;7391045;19;20478;-86
2023/10/10 07:50:35;;;;;;;1.38;0.75;;;;;;;16.61;100.00;99862.69;7391553;19;20026;-86
2023/10/10 07:53:06;;;;;;;2.42;0.93;;;;;;;16.79;100.00;99866.19;7394594;19;20026;-86
2023/10/10 07:55:52;;;;;;;8.20;0.55;;;;;;;16.97;100.00;99865.63;7391328;19;20011;-86
2023/10/10 07:58:23;;;;;;;0.28;0.28;;;;;;;17.05;100.00;99867.34;7391335;19;20367;-86
2023/10/10 08:00:53;;;;;;;2.78;0.43;;;;;;;17.10;100.00;99862.97;7393774;19;20021;-86
2023/10/10 08:03:20;;;;;;;0.30;0.10;;;;;;;17.11;100.00;99858.88;7390914;19;20015;-86
2023/10/10 08:05:50;;;;;;;0.80;0.63;;;;;;;17.15;100.00;99856.56;7393961;19;20365;-87
2023/10/10 08:08:17;;;;;;;;;;;;;;;17.16;100.00;99844.78;7391295;19;20436;-86
2023/10/10 08:10:49;;;;;;;0.30;0.30;;;;;;;17.23;100.00;99843.47;7389335;19;19907;-86
2023/10/10 08:13:23;;;;;;;3.67;0.60;;;;;;;17.30;100.00;99838.03;7391402;19;20015;-86
2023/10/10 08:16:01;;;;;;;1.02;0.40;;;;;;;17.40;100.00;99841.28;7390375;19;20015;-86
2023/10/10 08:21:11;;;;;;;4.03;0.90;;;;;;;17.62;100.00;99835.53;7398824;19;20007;-86
2023/10/10 08:23:47;;;;;;;2.03;0.57;;;;;;;17.72;100.00;99833.13;7396081;19;20014;-86
2023/10/10 08:26:26;;;;;;;1.02;0.10;;;;;;;17.85;100.00;99822.75;7390043;19;20385;-87
2023/10/10 08:28:53;;;;;;;2.20;0.70;;;;;;;17.95;100.00;99821.13;7389714;19;20006;-86
2023/10/10 08:31:19;;;;;;;0.55;0.30;;;;;;;18.01;100.00;99816.22;7391108;19;20018;-87
2023/10/10 08:33:48;;;;;;;1.67;0.68;;;;;;;18.08;100.00;99823.31;7392136;19;20019;-86
2023/10/10 08:36:23;;;;;;;1.73;0.20;;;;;;;18.09;100.00;99825.59;7390976;19;20006;-86
2023/10/10 08:38:57;;;;;;;1.17;0.57;;;;;;;18.13;100.00;99840.16;7389901;19;20014;-86
2023/10/10 08:41:28;;;;;;;2.08;0.63;;;;;;;18.12;100.00;99827.38;7393818;19;20046;-86
2023/10/10 08:43:58;;;;;;;1.88;0.65;;;;;;;18.25;100.00;99825.94;7395808;19;20026;-86
2023/10/10 08:46:31;;;;;;;1.20;0.95;;;;;;;18.37;100.00;99827.34;7396673;19;20035;-86
2023/10/10 08:49:04;;;;;;;0.90;0.65;;;;;;;18.49;100.00;99814.69;7395939;19;20010;-87
2023/10/10 08:51:34;;;;;;;0.77;0.77;;;;;;;18.59;100.00;99813.00;7395638;19;20023;-86
2023/10/10 08:54:11;;;;;;;2.83;0.52;;;;;;;18.68;100.00;99809.81;7396856;19;20471;-86
2023/10/10 08:56:59;;;;;;;1.65;0.88;;;;;;;18.76;100.00;99811.50;7394320;19;20019;-86
2023/10/10 08:59:28;;;;;;;0.88;0.60;;;;;;;18.87;100.00;99804.94;7395832;19;20010;-86
2023/10/10 09:02:19;;;;;;;2.30;0.50;;;;;;;18.95;100.00;99800.19;7394352;19;20116;-86
2023/10/10 09:04:46;;;;;;;1.30;1.10;;;;;;;19.04;100.00;99797.00;7393549;19;20017;-86
2023/10/10 09:07:23;;;;;;;1.80;0.88;;;;;;;19.12;100.00;99791.50;7399146;19;20015;-88
2023/10/10 09:10:04;;;;;;;4.57;0.40;;;;;;;19.23;100.00;99794.91;7395886;19;20536;-88
2023/10/10 09:12:34;;;;;;;;;;;;;;;19.36;100.00;99794.25;7397181;19;20107;-86
2023/10/10 09:15:16;;;;;;;0.95;0.40;;;;;;;19.47;100.00;99792.00;7395334;19;19925;-86
2023/10/10 09:17:45;;;;;;;1.23;0.73;;;;;;;19.57;100.00;99795.94;7397747;19;20021;-86
2023/10/10 09:20:23;;;;;;;3.03;0.43;;;;;;;19.71;100.00;99791.06;7396394;19;20037;-85
2023/10/10 09:22:54;;;;;;;0.70;0.30;;;;;;;19.86;100.00;99787.75;7395189;19;20018;-86
2023/10/10 09:25:22;;;;;;;0.90;0.32;;;;;;;19.99;100.00;99782.09;7394176;19;20026;-86
2023/10/10 09:28:03;;;;;;;4.95;0.80;;;;;;;20.11;100.00;99772.09;7393844;19;20015;-86
2023/10/10 09:30:50;;;;;;;1.98;0.98;;;;;;;20.26;100.00;99778.00;7399025;19;20368;-88
2023/10/10 09:33:27;;;;;;;1.40;0.50;;;;;;;20.38;100.00;99776.44;7398254;19;20011;-86
2023/10/10 09:35:59;;;;;;;0.10;0.10;;;;;;;20.49;100.00;99773.41;7397757;19;20014;-87
2023/10/10 10:34:05;;;;;;;4.50;1.98;;;;;;;21.75;100.00;99751.13;7248390;19;3061479;-54
2023/10/10 10:36:41;;;;;;;6.18;1.75;;;;;;;21.79;100.00;99749.47;7432966;19;20011;-54
2023/10/10 10:39:25;;;;;;;4.68;2.00;;;;;;;21.80;100.00;99747.38;7430018;19;20010;-54
2023/10/10 10:42:11;;;;;;;1.55;0.68;;;;;;;21.80;100.00;99748.16;7427559;19;20031;-54
2023/10/10 10:47:45;;;;;;;7.03;1.90;;;;;;;21.88;100.00;99742.56;7429799;19;20017;-54
2023/10/10 10:50:29;;;;;;;5.55;2.33;;;;;;;21.89;100.00;99729.91;7428806;19;20022;-55
2023/10/10 10:52:59;;;;;;;7.78;2.10;;;;;;;21.92;100.00;99736.53;7429941;19;20010;-54
2023/10/10 10:55:29;;;;;;;4.32;1.60;;;;;;;21.94;100.00;99731.81;7429466;19;20495;-54
2023/10/10 11:03:37;;;;;;;1.33;0.70;;;;;;;22.21;100.00;99744.47;7430625;19;20010;-54
2023/10/10 11:06:06;;;;;;;1.25;0.73;;;;;;;22.21;100.00;99732.34;7430793;19;20469;-54
2023/10/10 11:16:38;;;;;;;9.20;1.80;;;;;;;22.46;100.00;99733.41;7427167;19;20018;-55
2023/10/10 11:21:54;;;;;;;10.60;3.60;;;;;;;22.79;100.00;99734.50;7426640;19;20043;-55
2023/10/10 11:24:31;;;;;;;5.15;0.82;;;;;;;22.94;100.00;99723.97;7426193;19;20010;-55
2023/10/10 11:29:47;;;;;;;6.63;2.47;;;;;;;23.16;100.00;99716.81;7424883;19;20018;-54
2023/10/10 11:32:23;;;;;;;4.07;2.35;;;;;;;23.21;100.00;99718.72;7426618;19;20010;-55
2023/10/10 11:34:56;;;;;;;11.63;4.65;;;;;;;23.22;100.00;99714.53;7398443;19;20013;-55
2023/10/10 11:37:26;;;;;;;14.93;4.90;;;;;;;23.21;100.00;99708.09;7396117;19;20454;-55
2023/10/10 11:43:04;;;;;;;7.88;3.13;;;;;;;23.17;100.00;99719.06;7396232;19;20014;-54
2023/10/10 11:45:39;;;;;;;19.50;4.85;;;;;;;23.24;100.00;99711.88;7398467;19;20031;-55
2023/10/10 11:48:13;;;;;;;14.73;7.28;;;;;;;38.34;61.82;99689.41;7396943;19;20474;-55
2023/10/10 11:50:49;;;;;;;20.67;8.27;;;;;;;42.22;39.62;99683.44;7400385;19;20019;-55
2023/10/10 11:53:23;;;;;;;21.25;5.03;;;;;;;45.26;33.90;99677.41;7400129;19;20034;-58
2023/10/10 11:55:53;;;;;;;6.72;3.00;;;;;;;45.56;30.99;99663.56;7401352;19;20022;-58
2023/10/10 11:58:20;;;;;;;32.63;9.33;;;;;;;47.35;28.07;99662.75;7398266;19;20014;-57
2023/10/10 12:00:59;;;;;;;18.83;6.95;;;;;;;47.90;26.55;99646.25;7401639;19;20074;-57
2023/10/10 12:06:16;;;;;;;18.52;7.25;;;;;;;48.91;25.32;99656.47;7397608;19;20041;-58
2023/10/10 12:08:50;;;;;;;12.57;3.47;;;;;;;49.52;24.52;99645.38;7397054;19;20129;-57
2023/10/10 12:11:22;;;;;;;7.45;3.67;;;;;;;48.98;23.71;99643.06;7402401;19;20014;-56
2023/10/10 12:13:50;;;;;;;5.40;2.15;;;;;;;48.20;24.55;99633.47;7398514;19;20462;-57
2023/10/10 12:16:17;;;;;;;4.43;2.20;;;;;;;48.33;24.56;99631.88;7394790;19;20398;-57
2023/10/10 12:18:52;;;;;;;5.28;2.10;;;;;;;45.85;25.76;99634.94;7398149;19;20011;-57
2023/10/10 12:21:20;;;;;;;10.98;2.53;;;;;;;48.54;23.84;99612.47;7400698;19;20018;-57
2023/10/10 12:23:48;;;;;;;6.28;2.60;;;;;;;48.84;22.42;99619.59;7401122;19;20018;-56
2023/10/10 12:26:14;;;;;;;5.15;2.00;;;;;;;48.95;22.40;99606.13;7396986;19;20458;-58
2023/10/10 12:28:43;;;;;;;7.18;3.10;;;;;;;48.94;22.21;99613.53;7396377;19;20014;-57
2023/10/10 12:31:15;;;;;;;15.88;5.75;;;;;;;49.16;22.32;99610.31;7399744;19;20359;-57
2023/10/10 12:33:47;;;;;;;12.55;5.38;;;;;;;49.07;22.64;99603.00;7398911;19;20015;-56
2023/10/10 12:36:15;;;;;;;9.75;3.17;;;;;;;48.43;22.11;99608.13;7396331;19;20328;-57
2023/10/10 12:38:41;;;;;;;7.65;2.50;;;;;;;49.26;21.58;99602.03;7395184;19;20010;-56
2023/10/10 12:41:19;;;;;;;6.32;2.92;;;;;;;49.44;20.65;99598.09;7400219;19;20014;-57
2023/10/10 12:43:47;;;;;;;1.73;1.52;;;;;;;48.51;21.84;99596.25;7399020;19;20026;-56
2023/10/10 12:46:16;;;;;;;4.35;3.35;;;;;;;40.26;26.62;99584.28;7394141;19;20370;-58
2023/10/10 12:48:43;;;;;;;3.78;2.42;;;;;;;41.19;30.03;99579.09;7395735;19;20010;-58
2023/10/10 12:51:09;;;;;;;4.57;1.88;;;;;;;46.78;23.80;99576.72;7400879;19;20011;-57
2023/10/10 12:53:40;;;;;;;6.00;2.28;;;;;;;47.22;22.89;99581.69;7398394;19;20021;-59
2023/10/10 12:56:11;;;;;;;3.88;2.47;;;;;;;47.74;23.16;99583.56;7395283;19;20462;-58
2023/10/10 12:58:43;;;;;;;8.40;3.40;;;;;;;47.30;23.09;99569.84;7395271;19;20458;-58
2023/10/10 13:01:14;;;;;;;3.67;1.60;;;;;;;47.03;22.88;99569.25;7401489;19;20010;-57
2023/10/10 13:03:47;;;;;;;3.70;1.38;;;;;;;46.89;23.14;99568.56;7399732;19;20007;-59
2023/10/10 13:06:14;;;;;;;1.92;1.63;;;;;;;46.44;23.06;99573.81;7395274;19;20010;-58
2023/10/10 13:11:32;;;;;;;7.90;2.20;;;;;;;30.73;43.08;99589.25;7401121;19;20358;-56
2023/10/10 13:14:08;;;;;;;5.97;2.08;;;;;;;32.38;49.20;99586.94;7396688;19;20017;-57
2023/10/10 13:19:12;;;;;;;2.05;0.90;;;;;;;44.78;26.12;99566.88;7396755;19;20014;-58
2023/10/10 13:21:41;;;;;;;1.38;0.85;;;;;;;45.19;26.04;99561.94;7397322;19;20105;-56
2023/10/10 13:24:11;;;;;;;1.08;0.90;;;;;;;45.39;25.36;99564.19;7399971;19;20011;-58
2023/10/10 13:26:38;;;;;;;;;;;;;;;44.80;25.76;99551.47;7396296;19;20015;-57
2023/10/10 13:29:08;;;;;;;2.38;1.05;;;;;;;37.17;29.88;99557.34;7392933;19;19974;-56
2023/10/10 13:31:37;;;;;;;1.52;0.85;;;;;;;30.36;52.80;99561.72;7394570;19;20029;-59
2023/10/10 13:34:04;;;;;;;2.38;1.15;;;;;;;36.85;40.53;99556.13;7391693;19;20017;-62
2023/10/10 13:36:32;;;;;;;3.72;0.80;;;;;;;43.33;29.19;99547.34;7391593;19;20014;-62
2023/10/10 13:39:00;;;;;;;5.07;0.93;;;;;;;44.31;26.33;99539.41;7393417;19;20006;-61
2023/10/10 13:41:29;;;;;;;2.85;0.77;;;;;;;33.21;35.92;99557.63;7392097;19;20023;-59
2023/10/10 13:44:02;;;;;;;2.72;1.50;;;;;;;40.39;31.17;99551.00;7396170;19;20014;-59
2023/10/10 13:46:34;;;;;;;3.97;0.77;;;;;;;30.97;39.70;99555.53;7390972;19;20015;-59
2023/10/10 13:49:03;;;;;;;9.13;1.38;;;;;;;28.17;45.39;99568.16;7393023;19;20020;-58
2023/10/10 13:51:39;;;;;;;1.85;0.70;;;;;;;26.18;59.25;99561.28;7393767;19;20017;-59
2023/10/10 13:57:22;;;;;;;3.40;0.98;;;;;;;28.36;88.27;99556.63;7392579;19;20426;-54
2023/10/10 13:59:49;;;;;;;1.27;0.52;;;;;;;40.87;36.62;99543.34;7391627;19;20018;-53
2023/10/10 14:02:16;;;;;;;8.52;1.98;;;;;;;37.81;32.00;99546.53;7389177;19;20014;-54
2023/10/10 14:04:47;;;;;;;5.85;1.33;;;;;;;23.45;85.26;99567.53;7393411;19;20074;-54
2023/10/10 14:07:14;;;;;;;5.82;1.10;;;;;;;23.01;87.42;99557.72;7388475;19;20022;-54
2023/10/10 14:09:41;;;;;;;6.28;1.38;;;;;;;23.37;96.55;99538.34;7391526;19;20094;-54
2023/10/10 14:12:08;;;;;;;2.67;0.60;;;;;;;23.72;100.00;99551.50;7391731;19;20018;-54
2023/10/10 14:14:34;;;;;;;0.45;0.20;;;;;;;35.06;55.88;99523.31;7396736;19;20018;-54
2023/10/10 14:17:01;;;;;;;0.85;0.75;;;;;;;21.90;100.00;99538.59;7393632;19;20007;-54
2023/10/10 14:19:27;;;;;;;0.77;0.52;;;;;;;25.80;97.77;99533.22;7393644;19;20010;-54
2023/10/10 14:21:53;;;;;;;1.05;0.60;;;;;;;30.96;73.62;99525.28;7398012;19;20019;-54
2023/10/10 14:24:20;;;;;;;1.90;0.98;;;;;;;23.61;100.00;99534.88;7397672;19;20070;-54
2023/10/10 14:26:48;;;;;;;7.53;2.55;;;;;;;24.41;100.00;99526.31;7394052;19;20478;-54
2023/10/10 14:29:15;;;;;;;9.98;2.13;;;;;;;26.59;79.27;99523.19;7393773;19;20027;-54
2023/10/10 14:31:45;;;;;;;5.68;0.93;;;;;;;26.87;76.83;99511.13;7393875;19;20042;-54
2023/10/10 14:34:34;;;;;;;2.28;0.98;;;;;;;20.64;100.00;99513.25;7398117;19;20466;-54
2023/10/10 14:37:01;;;;;;;0.53;0.40;;;;;;;23.40;100.00;99513.72;7394599;19;20033;-54
2023/10/10 14:39:31;;;;;;;1.65;1.08;;;;;;;25.12;100.00;99499.00;7393586;19;20254;-54
2023/10/10 14:41:58;;;;;;;5.03;2.55;;;;;;;22.82;100.00;99504.16;7392470;19;20086;-54
2023/10/10 14:44:26;;;;;;;4.35;1.08;;;;;;;23.95;100.00;99500.97;7398195;19;20015;-54
2023/10/10 14:46:57;;;;;;;1.85;0.73;;;;;;;31.02;89.60;99482.47;7392545;19;20462;-54
2023/10/10 14:49:29;;;;;;;1.30;0.80;;;;;;;22.95;100.00;99500.34;7393333;19;20022;-54
2023/10/10 14:52:03;;;;;;;2.70;0.65;;;;;;;25.09;100.00;99500.16;7393561;19;20029;-54
2023/10/10 14:54:30;;;;;;;4.95;1.77;;;;;;;41.78;41.36;99471.97;7398026;19;20014;-53
2023/10/10 14:56:57;;;;;;;1.65;0.30;;;;;;;34.23;44.93;99480.41;7394250;19;20074;-54
2023/10/10 14:59:31;;;;;;;1.02;0.88;;;;;;;24.01;100.00;99498.69;7392655;19;20006;-54
2023/10/10 15:02:00;;;;;;;1.00;0.50;;;;;;;27.45;90.95;99494.06;7391867;19;20034;-54
2023/10/10 15:04:30;;;;;;;0.98;0.30;;;;;;;20.73;100.00;99497.84;7397073;19;20078;-54
2023/10/10 15:06:57;;;;;;;0.77;0.38;;;;;;;19.59;100.00;99508.00;7393111;19;20014;-54
2023/10/10 15:09:25;;;;;;;0.77;0.70;;;;;;;19.16;100.00;99498.34;7397288;19;20014;-53
2023/10/10 15:11:58;;;;;;;0.55;0.55;;;;;;;18.88;100.00;99498.88;7399672;19;20015;-54
2023/10/10 15:14:25;;;;;;;0.75;0.50;;;;;;;18.67;100.00;99500.78;7404192;19;20014;-54
2023/10/10 15:16:52;;;;;;;4.72;1.95;;;;;;;18.54;100.00;99498.72;7399914;19;20058;-54
2023/10/10 15:19:19;;;;;;;2.15;0.50;;;;;;;18.44;100.00;99497.63;7398719;19;20334;-53
2023/10/10 15:21:48;;;;;;;1.83;0.60;;;;;;;18.35;100.00;99492.34;7402153;19;20014;-54
2023/10/10 15:24:15;;;;;;;1.58;0.90;;;;;;;18.26;100.00;99492.03;7403406;19;20025;-54
2023/10/10 15:26:45;;;;;;;3.50;0.35;;;;;;;18.19;100.00;99479.31;7399531;19;20014;-54
2023/10/10 15:29:14;;;;;;;4.30;0.93;;;;;;;18.10;100.00;99474.06;7399924;19;20031;-53
2023/10/10 15:31:40;;;;;;;7.07;0.30;;;;;;;18.02;100.00;99471.09;7398588;19;20014;-54